< < Back
Terminal Aerodrome Forecast


Current Version              Previous Versions:   1  2  3  4  5  6  7  8  9  

Terminal Aerodrome Forecast

102
FTUS42 KILM 011100
TAFFLO
TAF
KFLO 011135Z 0112/0212 VRB02KT P6SM SCT005 SCT120
     FM011400 26004KT P6SM SCT020
     FM012000 19008KT P6SM VCSH BKN035
     FM020000 20005KT P6SM FEW050
      TEMPO 0208/0212 4SM BR SCT010=



Latest METAR

684
SAUS70 KWBC 020900 RRD
MTRFLO
METAR KFLO 020853Z AUTO 23003KT 10SM CLR 24/23 A3005 RMK AO2 SLP173
T02440233 56008 TSNO $


USA.gov is the U.S. government's official web portal to all federal, state and local government web resources and services.